BBRO2: Mountain Fork, Broken Bow Rereg

                                SHEF ID:       BBRO2     Mountain Fork Re-regulation Dam
STATION TYPE:

STAGE RIV-FLOW VOLTAGE BAT-LOAD
ft cfs volt volt
Ccp-Rev Ccp-Rev Ccp-Rev Ccp-Rev
(America/Chicago)
04/27 00:00 390.84 846 13.19 12.59
04/27 01:00 390.61 745 13.19 12.59
04/27 02:00 390.43 674 13.19 12.60
04/27 03:00 390.24 606 13.19 12.60
04/27 04:00 390.06 548 13.16 12.58
04/27 05:00 389.93 505 13.20 12.60
04/27 06:00 389.80 461 13.13 12.59
04/27 07:00 389.69 427 13.19 12.60
04/27 08:00 389.58 395 13.19 12.59
04/27 09:00 389.49 371 13.19 12.60
04/27 10:00 389.41 351 13.19 12.59
04/27 11:00 389.33 332 13.19 12.58
04/27 12:00 389.26 316 13.19 12.59
04/27 13:00 389.19 301 13.19 12.57
04/27 14:00 389.12 286 13.19 12.57
04/27 15:00 389.09 280 13.19 12.55
04/27 16:00 389.03 269 13.19 12.55
04/27 17:00 388.98 259 13.19 12.56
04/27 18:00 389.37 341 13.19 12.55
04/27 19:00 392.33 1437 13.19 12.57
04/27 20:00 394.56 2599 13.19 12.55
04/27 21:00 395.21 2959 13.20 12.57
04/27 22:00 394.55 2593 13.19 12.57
04/27 23:00 393.93 2264 13.13 12.57
Data processed at Tue 28Apr2026 04:34 GMT

NOTICE: If you are parsing this page

Please convert to using our Data API. Starting early 2026 we will be migrating to: https://water.usace.army.mil with modern pages rendered in JavaScript. When this migration completes you will no longer be able to scrape this page! CWMSDataAPI (CDA)

Timeseries IDs (TSIDs)

TSIDs used from left to right in the data table
BROM.Stage.Inst.1Hour.0.Ccp-Rev
BROM.Flow.Inst.1Hour.0.Ccp-Rev
BROM.Volt-Battery.Inst.1Hour.0.Ccp-Rev
BROM.Volt-Battery Load.Inst.1Hour.0.Ccp-Rev

                            

All information presented herein is the property of the government of the United States of America and may be revised or deleted at any time without prior notice. Dissemination of this information without the expressed written consent of the Public Affairs Office, Tulsa District U.S. Army Corps of Engineers is strictly prohibited. These data are gathered electronically and, as presented, have NOT undergone any form of quality control. These data are NOT guaranteed to be valid or correct.